createdAt,value
2022-09-29T00:01:44.390Z,3.28
2022-09-29T00:04:11.647Z,2.60
2022-09-29T00:06:38.460Z,3.05
2022-09-29T00:09:05.322Z,2.67
2022-09-29T00:11:32.010Z,2.92
2022-09-29T00:13:58.974Z,2.65
2022-09-29T00:16:25.684Z,2.72
2022-09-29T00:18:55.084Z,3.33
2022-09-29T00:21:21.877Z,3.70
2022-09-29T00:23:49.556Z,3.15
2022-09-29T00:26:21.147Z,2.80
2022-09-29T00:28:49.570Z,2.63
2022-09-29T00:31:16.362Z,3.20
2022-09-29T00:33:43.204Z,2.50
2022-09-29T00:36:14.274Z,2.38
2022-09-29T00:38:41.594Z,2.33
2022-09-29T00:41:08.824Z,3.22
2022-09-29T00:43:55.634Z,2.30
2022-09-29T00:46:26.511Z,2.92
2022-09-29T00:48:54.972Z,2.83
2022-09-29T00:51:21.813Z,2.53
2022-09-29T00:53:50.857Z,2.17
2022-09-29T00:56:17.623Z,2.63
2022-09-29T00:58:54.676Z,2.60
2022-09-29T01:01:25.549Z,2.47
2022-09-29T01:03:53.683Z,2.58
2022-09-29T01:06:22.037Z,2.72
2022-09-29T01:08:51.943Z,2.42
2022-09-29T01:11:20.159Z,2.58
2022-09-29T01:13:46.921Z,2.50
2022-09-29T01:16:13.653Z,2.58
2022-09-29T01:18:40.462Z,2.90
2022-09-29T01:21:35.335Z,2.40
2022-09-29T01:24:26.959Z,2.67
2022-09-29T01:27:02.522Z,2.50
2022-09-29T01:29:57.510Z,2.65
2022-09-29T01:32:42.887Z,2.05
2022-09-29T01:35:15.873Z,2.22
2022-09-29T01:37:54.571Z,2.15
2022-09-29T01:40:34.492Z,2.95
2022-09-29T01:43:09.787Z,2.35
2022-09-29T01:45:42.762Z,2.42
2022-09-29T01:48:12.251Z,2.78
2022-09-29T01:50:44.553Z,2.55
2022-09-29T01:53:16.218Z,2.28
2022-09-29T01:55:47.297Z,2.63
2022-09-29T01:58:20.003Z,3.08
2022-09-29T02:00:50.864Z,2.08
2022-09-29T02:03:35.651Z,2.15
2022-09-29T02:06:04.655Z,2.25
2022-09-29T02:08:32.913Z,2.28
2022-09-29T02:11:04.838Z,2.13
2022-09-29T02:13:43.084Z,2.33
2022-09-29T02:16:14.396Z,1.90
2022-09-29T02:18:47.761Z,2.20
2022-09-29T02:21:14.476Z,2.07
2022-09-29T02:23:41.208Z,2.30
2022-09-29T02:26:07.949Z,2.67
2022-09-29T02:28:34.652Z,1.98
2022-09-29T02:31:01.985Z,2.28
2022-09-29T02:33:28.792Z,2.20
2022-09-29T02:36:13.115Z,4.22
2022-09-29T02:38:48.915Z,2.55
2022-09-29T02:41:38.134Z,2.63
2022-09-29T02:44:39.163Z,2.00
2022-09-29T02:47:36.055Z,2.13
2022-09-29T02:50:21.371Z,2.25
2022-09-29T02:53:00.280Z,2.45
2022-09-29T02:55:38.431Z,2.10
2022-09-29T02:58:15.938Z,2.10
2022-09-29T03:00:43.033Z,2.72
2022-09-29T03:03:10.163Z,2.03
2022-09-29T03:05:37.561Z,2.65
2022-09-29T03:08:04.270Z,2.40
2022-09-29T03:10:30.978Z,2.00
2022-09-29T03:12:57.749Z,2.63
2022-09-29T03:15:24.529Z,2.30
2022-09-29T03:17:51.194Z,1.65
2022-09-29T03:20:17.926Z,2.25
2022-09-29T03:22:44.894Z,2.03
2022-09-29T03:25:12.018Z,2.50
2022-09-29T03:27:39.273Z,2.10
2022-09-29T03:30:06.565Z,2.30
2022-09-29T03:32:33.332Z,2.20
2022-09-29T03:35:00.095Z,2.13
2022-09-29T03:37:26.918Z,1.92
2022-09-29T03:39:53.708Z,2.92
2022-09-29T03:42:24.143Z,2.00
2022-09-29T03:44:50.954Z,2.40
2022-09-29T03:47:17.677Z,2.45
2022-09-29T03:49:44.387Z,2.58
2022-09-29T03:52:12.550Z,2.20
2022-09-29T03:54:40.028Z,2.30
2022-09-29T03:57:06.737Z,2.38
2022-09-29T03:59:33.498Z,2.47
2022-09-29T04:02:00.312Z,2.58
2022-09-29T04:04:27.077Z,2.58
2022-09-29T04:06:53.798Z,2.35
2022-09-29T04:09:20.688Z,1.83
2022-09-29T04:11:47.592Z,2.63
2022-09-29T04:14:14.355Z,2.15
2022-09-29T04:16:41.101Z,2.65
2022-09-29T04:19:07.882Z,2.35
2022-09-29T04:21:34.585Z,2.17
2022-09-29T04:24:01.652Z,2.58
2022-09-29T04:26:28.438Z,2.03
2022-09-29T04:28:55.975Z,1.90
2022-09-29T04:31:22.753Z,2.85
2022-09-29T04:33:49.552Z,2.65
2022-09-29T04:36:16.276Z,2.40
2022-09-29T04:38:43.038Z,2.25
2022-09-29T04:41:09.873Z,2.08
2022-09-29T04:43:36.585Z,2.50
2022-09-29T04:46:04.817Z,2.63
2022-09-29T04:48:35.589Z,2.45
2022-09-29T04:51:03.882Z,1.92
2022-09-29T04:53:30.642Z,2.45
2022-09-29T04:55:57.460Z,2.33
2022-09-29T04:58:24.248Z,2.40
2022-09-29T05:00:50.979Z,2.42
2022-09-29T05:03:17.889Z,2.33
2022-09-29T05:05:44.729Z,2.47
2022-09-29T05:08:11.526Z,2.55
2022-09-29T05:10:38.269Z,2.85
2022-09-29T05:13:04.966Z,2.58
2022-09-29T05:15:31.824Z,2.80
2022-09-29T05:18:02.343Z,2.72
2022-09-29T05:20:36.639Z,2.15
2022-09-29T05:23:10.282Z,2.38
2022-09-29T05:25:37.813Z,2.47
2022-09-29T05:28:04.565Z,2.30
2022-09-29T05:30:31.338Z,2.53
2022-09-29T05:32:59.159Z,2.88
2022-09-29T05:35:26.074Z,2.25
2022-09-29T05:37:52.952Z,4.30
2022-09-29T05:40:20.525Z,3.03
2022-09-29T05:42:47.342Z,2.60
2022-09-29T05:45:14.182Z,2.40
2022-09-29T05:47:44.691Z,2.88
2022-09-29T05:50:14.327Z,2.80
2022-09-29T05:52:41.104Z,3.20
2022-09-29T05:55:14.450Z,3.10
2022-09-29T05:57:41.311Z,2.70
2022-09-29T06:00:08.574Z,2.95
2022-09-29T06:02:35.352Z,2.88
2022-09-29T06:05:02.166Z,2.65
2022-09-29T06:07:28.849Z,2.72
2022-09-29T06:09:55.626Z,2.40
2022-09-29T06:12:25.185Z,2.58
2022-09-29T06:14:51.929Z,2.08
2022-09-29T06:17:18.681Z,2.13
2022-09-29T06:19:45.863Z,2.03
2022-09-29T06:22:12.860Z,2.22
2022-09-29T06:24:39.565Z,1.92
2022-09-29T06:27:06.820Z,3.20
2022-09-29T06:29:33.564Z,2.42
2022-09-29T06:32:00.527Z,2.10
2022-09-29T06:34:27.378Z,2.22
2022-09-29T06:37:13.067Z,2.83
2022-09-29T06:39:39.949Z,2.72
2022-09-29T06:42:06.662Z,3.40
2022-09-29T06:44:33.363Z,3.10
2022-09-29T06:47:00.209Z,2.65
2022-09-29T06:49:26.945Z,2.47
2022-09-29T06:51:53.692Z,2.45
2022-09-29T06:54:22.079Z,2.75
2022-09-29T06:56:49.627Z,2.33
2022-09-29T06:59:16.882Z,2.20
2022-09-29T07:01:43.787Z,2.72
2022-09-29T07:04:10.674Z,2.72
2022-09-29T07:06:37.493Z,3.92
2022-09-29T07:09:04.272Z,3.30
2022-09-29T07:11:30.999Z,2.78
2022-09-29T07:13:58.270Z,2.50
2022-09-29T07:16:25.426Z,2.10
2022-09-29T07:18:52.918Z,2.95
2022-09-29T07:21:19.761Z,2.45
2022-09-29T07:23:48.703Z,2.70
2022-09-29T07:26:16.804Z,3.03
2022-09-29T07:28:45.180Z,2.63
2022-09-29T07:31:17.464Z,2.60
2022-09-29T07:33:44.971Z,3.38
2022-09-29T07:36:12.463Z,2.55
2022-09-29T07:38:39.210Z,3.05
2022-09-29T07:41:11.551Z,2.45
2022-09-29T07:43:38.763Z,2.22
2022-09-29T07:46:06.104Z,2.20
2022-09-29T07:48:33.809Z,1.83
2022-09-29T07:51:14.349Z,3.08
2022-09-29T07:53:43.644Z,2.53
2022-09-29T07:56:14.208Z,2.22
2022-09-29T07:58:56.328Z,2.42
2022-09-29T08:01:23.182Z,3.00
2022-09-29T08:03:52.269Z,2.30
2022-09-29T08:06:19.815Z,2.10
2022-09-29T08:08:58.203Z,2.30
2022-09-29T08:11:32.014Z,2.30
2022-09-29T08:13:59.509Z,2.17
2022-09-29T08:16:26.566Z,2.15
2022-09-29T08:18:53.546Z,2.45
2022-09-29T08:21:20.320Z,2.70
2022-09-29T08:23:47.108Z,2.42
2022-09-29T08:26:16.359Z,2.40
2022-09-29T08:28:43.520Z,3.92
2022-09-29T08:31:20.347Z,3.40
2022-09-29T08:33:49.851Z,2.80
2022-09-29T08:36:16.885Z,2.60
2022-09-29T08:38:45.023Z,3.00
2022-09-29T08:41:34.035Z,2.78
2022-09-29T08:44:07.192Z,3.45
2022-09-29T08:49:42.697Z,2.85
2022-09-29T08:52:19.338Z,3.17
2022-09-29T08:54:48.957Z,2.97
2022-09-29T08:57:20.607Z,3.22
2022-09-29T08:59:58.598Z,2.83
2022-09-29T09:02:40.327Z,3.25
2022-09-29T09:05:22.300Z,2.97
2022-09-29T09:07:52.085Z,3.40
2022-09-29T09:10:47.321Z,3.10
2022-09-29T09:13:24.273Z,4.68
2022-09-29T09:16:49.495Z,2.85
2022-09-29T09:19:35.070Z,3.28
2022-09-29T09:22:24.988Z,3.35
2022-09-29T09:25:26.596Z,3.50
2022-09-29T09:28:32.115Z,3.42
2022-09-29T09:31:07.999Z,3.08
2022-09-29T09:33:37.913Z,2.50
2022-09-29T09:36:09.572Z,2.53
2022-09-29T09:38:51.247Z,2.33
2022-09-29T09:41:19.358Z,2.00
2022-09-29T09:43:48.176Z,2.63
2022-09-29T09:46:20.992Z,2.90
2022-09-29T09:48:58.461Z,2.72
2022-09-29T09:51:49.977Z,2.33
2022-09-29T09:54:27.409Z,2.40
2022-09-29T09:57:26.909Z,2.78
2022-09-29T10:00:18.950Z,2.40
2022-09-29T10:02:53.039Z,2.65
2022-09-29T10:05:21.595Z,3.45
2022-09-29T10:07:51.157Z,3.33
2022-09-29T10:10:22.828Z,3.30
2022-09-29T10:13:01.903Z,3.70
2022-09-29T10:15:43.599Z,2.80
2022-09-29T10:18:15.410Z,2.75
2022-09-29T10:20:42.754Z,2.95
2022-09-29T10:23:28.817Z,2.80
2022-09-29T10:26:02.869Z,1.58
2022-09-29T10:28:38.170Z,2.50
2022-09-29T10:31:27.877Z,3.10
2022-09-29T10:33:59.034Z,2.70
2022-09-29T10:36:46.595Z,2.85
2022-09-29T10:39:35.036Z,3.78
2022-09-29T10:42:02.449Z,2.88
2022-09-29T10:44:31.732Z,2.30
2022-09-29T10:46:58.608Z,2.83
2022-09-29T10:49:29.105Z,3.47
2022-09-29T10:52:05.473Z,2.80
2022-09-29T10:54:37.653Z,2.28
2022-09-29T10:57:15.458Z,2.90
2022-09-29T10:59:49.434Z,2.60
2022-09-29T11:02:30.356Z,2.80
2022-09-29T11:04:59.659Z,2.13
2022-09-29T11:07:26.394Z,3.10
2022-09-29T11:09:54.859Z,2.88
2022-09-29T11:12:33.474Z,3.45
2022-09-29T11:15:08.994Z,3.88
2022-09-29T11:17:39.162Z,2.72
2022-09-29T11:20:10.992Z,3.75
2022-09-29T11:22:49.144Z,2.03
2022-09-29T11:25:32.098Z,1.70
2022-09-29T11:28:23.720Z,2.60
2022-09-29T11:31:08.866Z,1.50
2022-09-29T11:33:48.734Z,1.52
2022-09-29T11:36:35.351Z,2.05
2022-09-29T11:39:19.705Z,2.10
2022-09-29T11:42:23.738Z,1.58
2022-09-29T11:44:58.645Z,1.92
2022-09-29T11:47:55.523Z,1.50
2022-09-29T11:50:23.939Z,1.95
2022-09-29T11:53:09.912Z,1.50
2022-09-29T11:56:01.246Z,1.50
2022-09-29T11:58:57.489Z,1.00
2022-09-29T12:01:31.052Z,1.30
2022-09-29T12:04:22.907Z,1.10
2022-09-29T12:07:05.395Z,1.55
2022-09-29T12:09:53.908Z,1.70
2022-09-29T12:12:26.839Z,1.80
2022-09-29T12:15:22.302Z,1.87
2022-09-29T12:18:13.415Z,1.63
2022-09-29T12:20:45.208Z,1.60
2022-09-29T12:23:13.969Z,1.38
2022-09-29T12:25:51.023Z,1.40
2022-09-29T12:28:19.865Z,1.65
2022-09-29T12:30:47.924Z,1.27
2022-09-29T12:33:31.658Z,1.20
2022-09-29T12:36:47.720Z,1.33
2022-09-29T12:39:33.277Z,1.08
2022-09-29T12:42:29.293Z,0.90
2022-09-29T12:45:13.033Z,1.13
2022-09-29T12:47:58.104Z,1.60
2022-09-29T12:50:41.415Z,1.17
2022-09-29T12:53:23.295Z,1.23
2022-09-29T12:56:04.815Z,1.38
2022-09-29T12:58:50.144Z,1.77
2022-09-29T13:01:27.869Z,1.95
2022-09-29T13:04:32.174Z,1.10
2022-09-29T13:07:18.357Z,1.17
2022-09-29T13:09:57.021Z,0.98
2022-09-29T13:12:47.490Z,0.77
2022-09-29T13:15:23.262Z,1.30
2022-09-29T13:17:57.366Z,1.42
2022-09-29T13:20:27.049Z,0.98
2022-09-29T13:23:33.091Z,1.45
2022-09-29T13:26:16.263Z,1.23
2022-09-29T13:28:54.271Z,0.83
2022-09-29T13:31:23.241Z,0.68
2022-09-29T13:33:53.538Z,0.80
2022-09-29T13:36:25.289Z,0.90
2022-09-29T13:38:55.393Z,1.17
2022-09-29T13:41:22.052Z,1.20
2022-09-29T13:43:51.721Z,0.70
2022-09-29T13:46:30.896Z,0.80
2022-09-29T13:49:09.877Z,1.27
2022-09-29T13:51:52.634Z,0.80
2022-09-29T13:54:31.605Z,1.10
2022-09-29T13:57:13.502Z,0.70
2022-09-29T13:59:41.173Z,0.85
2022-09-29T14:02:33.248Z,1.00
2022-09-29T14:05:00.558Z,0.57
2022-09-29T14:07:47.324Z,0.90
2022-09-29T14:10:32.329Z,1.00
2022-09-29T14:13:13.214Z,1.08
2022-09-29T14:15:46.715Z,0.60
2022-09-29T14:18:44.342Z,1.00
2022-09-29T14:21:12.952Z,1.65
2022-09-29T14:23:46.105Z,1.10
2022-09-29T14:26:44.103Z,1.02
2022-09-29T14:29:33.263Z,1.48
2022-09-29T14:32:00.669Z,1.20
2022-09-29T14:34:29.446Z,1.23
2022-09-29T14:36:59.037Z,1.00
2022-09-29T14:39:32.462Z,0.70
2022-09-29T14:41:59.795Z,1.08
2022-09-29T14:44:50.696Z,0.90
2022-09-29T14:47:42.550Z,1.20
2022-09-29T14:51:12.264Z,1.13
2022-09-29T14:53:47.121Z,1.17
2022-09-29T14:56:36.442Z,1.80
2022-09-29T14:59:23.387Z,1.05
2022-09-29T15:02:19.166Z,1.08
2022-09-29T15:04:46.126Z,1.48
2022-09-29T15:07:21.045Z,0.80
2022-09-29T15:09:57.600Z,0.70
2022-09-29T15:12:28.900Z,0.60
2022-09-29T15:14:58.031Z,1.05
2022-09-29T15:17:46.284Z,0.93
2022-09-29T15:20:39.158Z,1.08
2022-09-29T15:23:47.824Z,1.08
2022-09-29T15:26:15.143Z,1.27
2022-09-29T15:28:43.419Z,0.65
2022-09-29T15:31:16.945Z,0.90
2022-09-29T15:33:44.080Z,0.90
2022-09-29T15:36:20.895Z,1.02
2022-09-29T15:38:51.032Z,1.48
2022-09-29T15:41:19.050Z,1.00
2022-09-29T15:43:59.700Z,1.30
2022-09-29T15:47:01.745Z,1.25
2022-09-29T15:49:29.009Z,0.95
2022-09-29T15:51:59.716Z,0.90
2022-09-29T15:54:29.878Z,0.90
2022-09-29T15:57:15.163Z,1.23
2022-09-29T15:59:43.677Z,1.55
2022-09-29T16:02:36.308Z,1.77
2022-09-29T16:05:12.225Z,1.00
2022-09-29T16:07:41.833Z,0.65
2022-09-29T16:10:15.805Z,1.40
2022-09-29T16:13:13.512Z,0.70
2022-09-29T16:15:47.158Z,0.85
2022-09-29T16:21:06.273Z,1.02
2022-09-29T16:23:49.247Z,0.88
2022-09-29T16:26:38.524Z,0.93
2022-09-29T16:29:14.022Z,1.20
2022-09-29T16:31:42.117Z,1.48
2022-09-29T16:34:21.449Z,1.10
2022-09-29T16:36:54.017Z,1.10
2022-09-29T16:39:24.126Z,0.85
2022-09-29T16:41:55.595Z,1.00
2022-09-29T16:44:30.218Z,1.02
2022-09-29T16:47:16.807Z,0.88
2022-09-29T16:50:14.364Z,0.93
2022-09-29T16:52:44.776Z,0.73
2022-09-29T16:55:17.428Z,0.70
2022-09-29T16:58:01.251Z,1.03
2022-09-29T17:00:28.359Z,1.15
2022-09-29T17:02:55.601Z,0.70
2022-09-29T17:05:23.601Z,0.65
2022-09-29T17:07:51.072Z,0.90
2022-09-29T17:10:19.434Z,0.95
2022-09-29T17:12:46.273Z,0.60
2022-09-29T17:15:17.257Z,0.93
2022-09-29T17:17:48.878Z,1.13
2022-09-29T17:20:18.631Z,1.00
2022-09-29T17:22:46.022Z,1.40
2022-09-29T17:25:13.436Z,1.55
2022-09-29T17:27:59.085Z,1.10
2022-09-29T17:30:26.328Z,1.35
2022-09-29T17:32:53.771Z,2.47
2022-09-29T17:35:22.869Z,1.65
2022-09-29T17:37:53.327Z,1.63
2022-09-29T17:40:34.515Z,1.40
2022-09-29T17:43:01.878Z,1.48
2022-09-29T17:45:29.939Z,1.60
2022-09-29T17:47:56.837Z,1.75
2022-09-29T17:50:24.782Z,2.00
2022-09-29T17:52:52.562Z,1.95
2022-09-29T17:55:21.383Z,1.52
2022-09-29T17:57:50.020Z,1.33
2022-09-29T18:00:19.419Z,2.28
2022-09-29T18:02:46.368Z,1.63
2022-09-29T18:05:13.419Z,1.77
2022-09-29T18:07:42.071Z,2.05
2022-09-29T18:10:30.096Z,1.90
2022-09-29T18:12:57.145Z,2.08
2022-09-29T18:15:24.494Z,1.90
2022-09-29T18:17:56.022Z,1.85
2022-09-29T18:20:23.670Z,3.97
2022-09-29T18:22:50.914Z,1.92
2022-09-29T18:25:18.742Z,2.35
2022-09-29T18:27:46.594Z,2.17
2022-09-29T18:30:19.628Z,3.97
2022-09-29T18:32:50.718Z,2.33
2022-09-29T18:35:22.157Z,2.85
2022-09-29T18:37:48.977Z,2.50
2022-09-29T18:40:16.032Z,3.25
2022-09-29T18:42:44.251Z,3.90
2022-09-29T18:45:12.599Z,4.15
2022-09-29T18:47:44.428Z,3.92
2022-09-29T18:50:15.594Z,3.38
2022-09-29T18:52:42.618Z,4.28
2022-09-29T18:55:09.596Z,3.70
2022-09-29T18:57:37.639Z,3.23
2022-09-29T19:00:11.107Z,4.32
2022-09-29T19:02:38.205Z,4.30
2022-09-29T19:05:06.679Z,6.45
2022-09-29T19:07:34.992Z,4.75
2022-09-29T19:10:03.007Z,4.15
2022-09-29T19:12:31.614Z,5.07
2022-09-29T19:15:01.080Z,4.68
2022-09-29T19:17:28.445Z,5.57
2022-09-29T19:19:55.274Z,6.07
2022-09-29T19:22:29.159Z,6.03
2022-09-29T19:24:58.560Z,6.88
2022-09-29T19:27:25.337Z,5.30
2022-09-29T19:29:58.401Z,5.68
2022-09-29T19:32:29.306Z,5.45
2022-09-29T19:34:56.218Z,6.40
2022-09-29T19:37:24.317Z,6.88
2022-09-29T19:39:51.672Z,6.75
2022-09-29T19:42:18.869Z,5.53
2022-09-29T19:44:45.760Z,6.53
2022-09-29T19:47:15.574Z,7.03
2022-09-29T19:49:42.436Z,6.32
2022-09-29T19:52:09.267Z,7.75
2022-09-29T19:54:37.975Z,6.90
2022-09-29T19:57:11.259Z,7.55
2022-09-29T19:59:40.391Z,7.22
2022-09-29T20:02:17.215Z,8.00
2022-09-29T20:04:46.946Z,8.35
2022-09-29T20:07:14.165Z,7.57
2022-09-29T20:09:41.024Z,7.22
2022-09-29T20:12:09.187Z,7.05
2022-09-29T20:14:37.972Z,7.03
2022-09-29T20:17:04.770Z,7.50
2022-09-29T20:19:34.851Z,7.65
2022-09-29T20:22:01.956Z,9.15
2022-09-29T20:24:28.880Z,9.65
2022-09-29T20:26:57.933Z,8.95
2022-09-29T20:29:25.376Z,8.93
2022-09-29T20:31:53.793Z,8.75
2022-09-29T20:34:22.397Z,8.00
2022-09-29T20:36:54.224Z,8.82
2022-09-29T20:39:21.796Z,9.13
2022-09-29T20:41:50.045Z,8.95
2022-09-29T20:44:20.082Z,8.77
2022-09-29T20:46:48.136Z,8.57
2022-09-29T20:49:16.300Z,10.70
2022-09-29T20:51:43.474Z,10.73
2022-09-29T20:54:11.433Z,10.30
2022-09-29T20:56:44.515Z,9.95
2022-09-29T20:59:13.224Z,11.40
2022-09-29T21:01:40.160Z,10.13
2022-09-29T21:04:09.580Z,9.05
2022-09-29T21:06:38.993Z,9.10
2022-09-29T21:09:06.333Z,9.93
2022-09-29T21:11:41.173Z,11.88
2022-09-29T21:14:09.860Z,9.82
2022-09-29T21:16:41.347Z,10.65
2022-09-29T21:19:09.489Z,9.90
2022-09-29T21:21:36.557Z,9.90
2022-09-29T21:24:03.822Z,9.90
2022-09-29T21:26:32.123Z,9.98
2022-09-29T21:29:01.532Z,9.90
2022-09-29T21:31:32.700Z,9.38
2022-09-29T21:34:09.595Z,10.18
2022-09-29T21:36:36.705Z,10.05
2022-09-29T21:39:08.323Z,9.85
2022-09-29T21:41:40.872Z,10.35
2022-09-29T21:44:11.543Z,10.70
2022-09-29T21:46:39.907Z,11.40
2022-09-29T21:49:08.289Z,11.75
2022-09-29T21:51:43.394Z,11.18
2022-09-29T21:54:17.797Z,11.02
2022-09-29T21:56:44.991Z,9.63
2022-09-29T21:59:12.582Z,11.27
2022-09-29T22:01:39.984Z,10.25
2022-09-29T22:04:07.289Z,9.98
2022-09-29T22:06:34.853Z,9.20
2022-09-29T22:09:02.247Z,9.27
2022-09-29T22:11:30.599Z,9.10
2022-09-29T22:13:58.488Z,10.02
2022-09-29T22:16:29.103Z,8.00
2022-09-29T22:19:21.499Z,7.55
2022-09-29T22:21:43.286Z,6.72
2022-09-29T22:24:10.724Z,6.30
2022-09-29T22:26:38.637Z,7.25
2022-09-29T22:29:05.529Z,5.30
2022-09-29T22:31:33.746Z,6.05
2022-09-29T22:34:01.622Z,6.30
2022-09-29T22:36:30.534Z,6.20
2022-09-29T22:38:57.622Z,5.93
2022-09-29T22:41:24.423Z,6.80
2022-09-29T22:43:53.966Z,7.15
2022-09-29T22:46:22.041Z,6.70
2022-09-29T22:48:48.942Z,6.70
2022-09-29T22:51:15.811Z,5.57
2022-09-29T22:53:42.786Z,6.57
2022-09-29T22:56:14.955Z,6.50
2022-09-29T22:58:44.889Z,6.63
2022-09-29T23:01:13.738Z,5.85
2022-09-29T23:03:41.217Z,6.30
2022-09-29T23:06:08.097Z,6.47
2022-09-29T23:08:34.955Z,6.20
2022-09-29T23:11:04.395Z,7.10
2022-09-29T23:13:31.537Z,6.40
2022-09-29T23:16:12.052Z,5.85
2022-09-29T23:18:45.849Z,8.02
2022-09-29T23:21:14.687Z,7.38
2022-09-29T23:23:41.509Z,6.82
2022-09-29T23:26:08.546Z,7.57
2022-09-29T23:28:35.750Z,6.82
2022-09-29T23:31:04.231Z,7.75
2022-09-29T23:33:31.492Z,7.60
2022-09-29T23:36:09.102Z,7.32
2022-09-29T23:38:56.226Z,6.47
2022-09-29T23:41:24.203Z,7.60
2022-09-29T23:43:50.908Z,7.35
2022-09-29T23:46:17.620Z,6.50
2022-09-29T23:48:44.714Z,7.28
2022-09-29T23:51:11.525Z,8.05
2022-09-29T23:53:38.259Z,8.25
2022-09-29T23:56:05.222Z,7.53
2022-09-29T23:58:31.988Z,8.40
